createdAt,value
2023-02-14T00:00:15.203Z,97452.44
2023-02-14T00:01:17.737Z,97450.88
2023-02-14T00:02:20.575Z,97448.94
2023-02-14T00:03:22.477Z,97451.66
2023-02-14T00:04:25.459Z,97450.88
2023-02-14T00:05:27.507Z,97448.94
2023-02-14T00:06:35.218Z,97440.84
2023-02-14T00:07:39.514Z,97441.63
2023-02-14T00:08:44.314Z,97440.06
2023-02-14T00:09:47.251Z,97448.16
2023-02-14T00:10:49.213Z,97440.06
2023-02-14T00:11:52.902Z,97441.16
2023-02-14T00:12:54.772Z,97443.88
2023-02-14T00:14:15.081Z,97447.69
2023-02-14T00:15:23.754Z,97445.31
2023-02-14T00:16:25.976Z,97451.53
2023-02-14T00:17:29.248Z,97444.53
2023-02-14T00:18:46.006Z,97446.13
2023-02-14T00:19:50.458Z,97441.81
2023-02-14T00:20:52.288Z,97435.31
2023-02-14T00:21:55.180Z,97444.53
2023-02-14T00:22:58.510Z,97443.75
2023-02-14T00:24:01.429Z,97440.25
2023-02-14T00:25:03.439Z,97440.56
2023-02-14T00:26:06.503Z,97452.16
2023-02-14T00:27:08.463Z,97445.19
2023-02-14T00:28:11.356Z,97442.81
2023-02-14T00:29:15.107Z,97449.00
2023-02-14T00:30:19.246Z,97449.34
2023-02-14T00:31:21.697Z,97450.44
2023-02-14T00:32:24.972Z,97456.63
2023-02-14T00:33:28.651Z,97455.84
2023-02-14T00:34:33.322Z,97453.47
2023-02-14T00:35:37.915Z,97458.06
2023-02-14T00:36:40.958Z,97467.78
2023-02-14T00:37:44.148Z,97468.88
2023-02-14T00:38:48.279Z,97466.53
2023-02-14T00:39:51.284Z,97474.63
2023-02-14T00:40:53.184Z,97473.50
2023-02-14T00:41:55.989Z,97470.31
2023-02-14T00:42:57.865Z,97469.84
2023-02-14T00:44:01.230Z,97470.97
2023-02-14T00:45:03.974Z,97471.63
2023-02-14T00:46:06.908Z,97468.00
2023-02-14T00:47:09.047Z,97465.16
2023-02-14T00:48:11.960Z,97472.94
2023-02-14T00:49:13.837Z,97469.09
2023-02-14T00:50:16.843Z,97475.31
2023-02-14T00:51:19.864Z,97470.69
2023-02-14T00:52:22.754Z,97473.88
2023-02-14T00:53:24.689Z,97473.88
2023-02-14T00:54:29.201Z,97471.63
2023-02-14T00:55:33.914Z,97463.53
2023-02-14T00:56:36.776Z,97461.28
2023-02-14T00:57:38.618Z,97467.50
2023-02-14T00:58:42.138Z,97472.56
2023-02-14T00:59:44.949Z,97469.84
2023-02-14T01:00:46.872Z,97462.56
2023-02-14T01:01:49.900Z,97464.44
2023-02-14T01:02:51.782Z,97463.66
2023-02-14T01:03:54.895Z,97461.75
2023-02-14T01:04:56.740Z,97459.03
2023-02-14T01:05:59.641Z,97459.88
2023-02-14T01:07:01.534Z,97456.34
2023-02-14T01:08:04.590Z,97461.75
2023-02-14T01:09:06.570Z,97461.75
2023-02-14T01:10:11.567Z,97460.97
2023-02-14T01:11:16.153Z,97466.38
2023-02-14T01:12:19.014Z,97454.78
2023-02-14T01:13:21.261Z,97463.97
2023-02-14T01:14:24.142Z,97470.19
2023-02-14T01:15:25.994Z,97469.38
2023-02-14T01:16:29.954Z,97479.41
2023-02-14T01:17:31.880Z,97473.22
2023-02-14T01:18:34.807Z,97471.63
2023-02-14T01:19:36.791Z,97472.44
2023-02-14T01:20:39.956Z,97471.63
2023-02-14T01:21:42.841Z,97471.63
2023-02-14T01:22:44.749Z,97472.75
2023-02-14T01:23:52.217Z,97469.25
2023-02-14T01:24:54.246Z,97469.09
2023-02-14T01:25:59.179Z,97468.31
2023-02-14T01:27:01.458Z,97471.31
2023-02-14T01:28:04.514Z,97468.97
2023-02-14T01:29:06.818Z,97468.19
2023-02-14T01:30:11.038Z,97470.41
2023-02-14T01:31:15.308Z,97474.22
2023-02-14T01:32:18.326Z,97469.59
2023-02-14T01:33:20.258Z,97469.59
2023-02-14T01:34:23.128Z,97470.41
2023-02-14T01:35:25.422Z,97467.72
2023-02-14T01:36:31.450Z,97465.03
2023-02-14T01:37:33.304Z,97470.41
2023-02-14T01:38:36.119Z,97467.72
2023-02-14T01:39:39.021Z,97465.03
2023-02-14T01:40:43.188Z,97461.19
2023-02-14T01:41:49.003Z,97461.97
2023-02-14T01:42:51.509Z,97458.50
2023-02-14T01:43:57.907Z,97461.19
2023-02-14T01:45:05.323Z,97467.72
2023-02-14T01:46:09.149Z,97454.22
2023-02-14T01:47:12.665Z,97461.50
2023-02-14T01:48:17.152Z,97464.19
2023-02-14T01:49:25.374Z,97463.41
2023-02-14T01:50:32.928Z,97467.72
2023-02-14T01:51:39.306Z,97475.81
2023-02-14T01:52:45.612Z,97465.03
2023-02-14T01:53:49.024Z,97470.72
2023-02-14T01:54:56.198Z,97472.66
2023-02-14T01:56:05.831Z,97467.25
2023-02-14T01:57:13.693Z,97465.66
2023-02-14T01:58:21.796Z,97461.84
2023-02-14T01:59:28.513Z,97461.84
2023-02-14T02:00:49.228Z,97459.16
2023-02-14T02:01:53.384Z,97464.53
2023-02-14T02:02:56.230Z,97461.06
2023-02-14T02:04:08.016Z,97454.06
2023-02-14T02:05:11.496Z,97463.28
2023-02-14T02:06:18.126Z,97455.50
2023-02-14T02:07:24.384Z,97456.28
2023-02-14T02:08:27.664Z,97462.47
2023-02-14T02:09:34.122Z,97460.91
2023-02-14T02:10:37.130Z,97455.50
2023-02-14T02:11:40.374Z,97457.41
2023-02-14T02:12:45.251Z,97465.53
2023-02-14T02:13:47.110Z,97463.91
2023-02-14T02:14:53.893Z,97473.94
2023-02-14T02:16:11.215Z,97477.09
2023-02-14T02:17:25.322Z,97480.94
2023-02-14T02:18:35.432Z,97480.94
2023-02-14T02:20:06.442Z,97470.13
2023-02-14T02:21:42.593Z,97471.69
2023-02-14T02:23:23.533Z,97465.53
2023-02-14T02:24:36.738Z,97466.31
2023-02-14T02:26:04.776Z,97467.88
2023-02-14T02:27:26.191Z,97467.88
2023-02-14T02:29:19.570Z,97466.31
2023-02-14T02:31:06.655Z,97469.00
2023-02-14T02:32:37.937Z,97466.31
2023-02-14T02:34:28.940Z,97459.34
2023-02-14T02:35:50.743Z,97466.16
2023-02-14T02:37:20.636Z,97464.88
2023-02-14T02:38:35.036Z,97466.81
2023-02-14T02:39:55.048Z,97459.03
2023-02-14T02:41:04.159Z,97457.91
2023-02-14T02:42:20.951Z,97460.63
2023-02-14T02:43:42.284Z,97455.22
2023-02-14T02:44:53.012Z,97452.53
2023-02-14T02:46:19.015Z,97448.22
2023-02-14T02:47:30.899Z,97454.91
2023-02-14T02:48:40.642Z,97456.00
2023-02-14T02:50:08.629Z,97446.81
2023-02-14T02:51:38.925Z,97447.91
2023-02-14T02:53:06.244Z,97451.41
2023-02-14T02:54:17.498Z,97446.00
2023-02-14T02:55:26.318Z,97447.13
2023-02-14T02:56:47.281Z,97438.25
2023-02-14T02:57:54.375Z,97439.03
2023-02-14T02:58:59.876Z,97444.44
2023-02-14T03:00:05.858Z,97448.69
2023-02-14T03:01:11.625Z,97453.63
2023-02-14T03:02:18.943Z,97453.63
2023-02-14T03:03:42.049Z,97450.91
2023-02-14T03:04:53.184Z,97457.44
2023-02-14T03:05:55.810Z,97443.16
2023-02-14T03:07:00.730Z,97441.25
2023-02-14T03:08:04.329Z,97442.38
2023-02-14T03:09:13.013Z,97438.88
2023-02-14T03:10:17.207Z,97439.69
2023-02-14T03:11:21.280Z,97441.56
2023-02-14T03:12:56.482Z,97439.69
2023-02-14T03:14:15.916Z,97436.16
2023-02-14T03:15:28.080Z,97440.78
2023-02-14T03:16:48.205Z,97437.31
2023-02-14T03:18:17.478Z,97436.50
2023-02-14T03:20:00.379Z,97441.09
2023-02-14T03:21:16.618Z,97441.09
2023-02-14T03:22:29.009Z,97435.69
2023-02-14T03:23:37.029Z,97445.72
2023-02-14T03:24:45.800Z,97444.13
2023-02-14T03:26:01.866Z,97441.44
2023-02-14T03:27:09.819Z,97434.13
2023-02-14T03:28:19.125Z,97438.75
2023-02-14T03:29:29.657Z,97433.34
2023-02-14T03:30:42.215Z,97431.44
2023-02-14T03:31:59.310Z,97445.72
2023-02-14T03:33:06.104Z,97441.44
2023-02-14T03:34:13.726Z,97439.53
2023-02-14T03:35:25.736Z,97440.31
2023-02-14T03:36:35.458Z,97444.13
2023-02-14T03:37:44.013Z,97440.97
2023-02-14T03:38:50.795Z,97443.66
2023-02-14T03:40:01.987Z,97438.59
2023-02-14T03:41:11.391Z,97443.19
2023-02-14T03:42:19.054Z,97437.81
2023-02-14T03:43:27.894Z,97437.81
2023-02-14T03:44:33.633Z,97447.03
2023-02-14T03:45:40.509Z,97437.81
2023-02-14T03:46:47.470Z,97437.81
2023-02-14T03:47:52.731Z,97438.59
2023-02-14T03:48:58.284Z,97444.75
2023-02-14T03:50:05.570Z,97443.19
2023-02-14T03:51:12.343Z,97443.19
2023-02-14T03:52:14.951Z,97448.59
2023-02-14T03:53:29.088Z,97443.19
2023-02-14T03:54:32.761Z,97453.53
2023-02-14T03:55:42.757Z,97455.44
2023-02-14T03:56:48.532Z,97453.84
2023-02-14T03:57:57.199Z,97450.34
2023-02-14T03:59:06.273Z,97446.09
2023-02-14T04:00:10.644Z,97453.03
2023-02-14T04:01:21.126Z,97451.47
2023-02-14T04:02:29.160Z,97450.34
2023-02-14T04:03:33.397Z,97446.88
2023-02-14T04:04:39.963Z,97444.94
2023-02-14T04:05:46.685Z,97452.25
2023-02-14T04:06:49.838Z,97462.28
2023-02-14T04:07:53.684Z,97452.56
2023-02-14T04:08:57.908Z,97451.47
2023-02-14T04:09:59.804Z,97449.88
2023-02-14T04:11:04.920Z,97448.31
2023-02-14T04:12:07.758Z,97454.50
2023-02-14T04:13:10.667Z,97460.66
2023-02-14T04:14:12.607Z,97456.88
2023-02-14T04:15:16.754Z,97460.66
2023-02-14T04:16:18.744Z,97461.50
2023-02-14T04:17:39.190Z,97464.19
2023-02-14T04:18:59.636Z,97456.09
2023-02-14T04:20:02.503Z,97454.19
2023-02-14T04:21:04.856Z,97447.66
2023-02-14T04:22:07.667Z,97446.09
2023-02-14T04:23:09.563Z,97451.47
2023-02-14T04:24:13.775Z,97457.97
2023-02-14T04:25:15.790Z,97449.09
2023-02-14T04:26:18.703Z,97455.63
2023-02-14T04:27:20.662Z,97451.00
2023-02-14T04:28:23.572Z,97455.63
2023-02-14T04:29:25.521Z,97458.31
2023-02-14T04:30:28.378Z,97453.69
2023-02-14T04:31:30.341Z,97447.06
2023-02-14T04:32:33.208Z,97447.84
2023-02-14T04:33:35.065Z,97443.56
2023-02-14T04:34:38.897Z,97445.13
2023-02-14T04:35:40.898Z,97449.75
2023-02-14T04:36:43.735Z,97446.72
2023-02-14T04:37:46.635Z,97449.75
2023-02-14T04:38:48.546Z,97448.97
2023-02-14T04:39:52.797Z,97450.53
2023-02-14T04:40:54.676Z,97442.75
2023-02-14T04:41:57.819Z,97446.56
2023-02-14T04:43:01.356Z,97443.88
2023-02-14T04:44:04.236Z,97441.97
2023-02-14T04:45:07.747Z,97450.06
2023-02-14T04:46:10.672Z,97451.97
2023-02-14T04:47:12.601Z,97448.16
2023-02-14T04:48:15.581Z,97443.56
2023-02-14T04:49:17.671Z,97440.88
2023-02-14T04:50:20.662Z,97441.19
2023-02-14T04:51:22.542Z,97440.41
2023-02-14T04:52:25.815Z,97429.59
2023-02-14T04:53:27.697Z,97433.41
2023-02-14T04:54:31.932Z,97427.22
2023-02-14T04:55:35.161Z,97430.69
2023-02-14T04:56:38.088Z,97432.94
2023-02-14T04:57:40.129Z,97431.81
2023-02-14T04:58:43.378Z,97433.75
2023-02-14T04:59:45.464Z,97425.66
2023-02-14T05:00:48.388Z,97426.44
2023-02-14T05:01:50.314Z,97425.66
2023-02-14T05:02:53.327Z,97434.84
2023-02-14T05:03:56.168Z,97430.22
2023-02-14T05:04:58.212Z,97429.44
2023-02-14T05:06:01.086Z,97420.25
2023-02-14T05:07:03.151Z,97420.25
2023-02-14T05:08:06.037Z,97424.84
2023-02-14T05:09:08.017Z,97425.97
2023-02-14T05:10:11.863Z,97430.22
2023-02-14T05:11:15.240Z,97429.13
2023-02-14T05:12:18.228Z,97426.44
2023-02-14T05:13:20.126Z,97411.03
2023-02-14T05:14:23.193Z,97414.50
2023-02-14T05:15:25.049Z,97414.50
2023-02-14T05:16:27.988Z,97421.03
2023-02-14T05:17:29.902Z,97409.13
2023-02-14T05:18:32.798Z,97411.81
2023-02-14T05:19:34.671Z,97411.81
2023-02-14T05:20:37.599Z,97408.66
2023-02-14T05:21:39.504Z,97415.94
2023-02-14T05:22:42.382Z,97412.47
2023-02-14T05:23:44.365Z,97413.56
2023-02-14T05:24:47.229Z,97420.56
2023-02-14T05:25:50.221Z,97421.66
2023-02-14T05:26:54.505Z,97422.78
2023-02-14T05:27:56.548Z,97416.25
2023-02-14T05:28:59.415Z,97420.88
2023-02-14T05:30:01.385Z,97412.00
2023-02-14T05:31:04.572Z,97420.09
2023-02-14T05:32:06.664Z,97425.16
2023-02-14T05:33:09.791Z,97416.25
2023-02-14T05:34:11.979Z,97410.09
2023-02-14T05:35:16.376Z,97417.09
2023-02-14T05:36:18.300Z,97423.56
2023-02-14T05:37:21.322Z,97419.78
2023-02-14T05:38:24.269Z,97422.47
2023-02-14T05:39:26.200Z,97428.66
2023-02-14T05:40:29.655Z,97422.47
2023-02-14T05:41:31.548Z,97425.50
2023-02-14T05:42:36.924Z,97425.50
2023-02-14T05:43:38.973Z,97422.00
2023-02-14T05:44:41.868Z,97415.81
2023-02-14T05:45:44.771Z,97422.31
2023-02-14T05:46:46.736Z,97418.53
2023-02-14T05:47:50.335Z,97415.34
2023-02-14T05:48:52.177Z,97421.53
2023-02-14T05:49:55.090Z,97414.22
2023-02-14T05:50:56.987Z,97414.22
2023-02-14T05:51:59.961Z,97415.00
2023-02-14T05:53:02.079Z,97415.81
2023-02-14T05:54:05.290Z,97418.53
2023-02-14T05:55:08.209Z,97418.53
2023-02-14T05:56:11.091Z,97418.84
2023-02-14T05:57:13.020Z,97422.31
2023-02-14T05:58:17.217Z,97419.16
2023-02-14T05:59:20.322Z,97421.84
2023-02-14T06:00:23.831Z,97428.84
2023-02-14T06:01:26.694Z,97427.25
2023-02-14T06:02:28.621Z,97426.44
2023-02-14T06:03:31.560Z,97433.75
2023-02-14T06:04:34.780Z,97429.16
2023-02-14T06:05:36.698Z,97420.28
2023-02-14T06:06:39.572Z,97428.38
2023-02-14T06:07:43.180Z,97416.78
2023-02-14T06:08:45.984Z,97427.25
2023-02-14T06:09:47.923Z,97429.94
2023-02-14T06:10:50.848Z,97426.13
2023-02-14T06:11:55.334Z,97431.53
2023-02-14T06:12:57.393Z,97432.31
2023-02-14T06:14:01.673Z,97436.59
2023-02-14T06:15:03.959Z,97433.91
2023-02-14T06:16:07.476Z,97433.09
2023-02-14T06:17:10.037Z,97438.50
2023-02-14T06:18:12.954Z,97432.31
2023-02-14T06:19:14.862Z,97435.81
2023-02-14T06:20:17.794Z,97432.31
2023-02-14T06:21:19.600Z,97435.03
2023-02-14T06:22:22.525Z,97433.91
2023-02-14T06:23:24.436Z,97438.50
2023-02-14T06:24:27.339Z,97437.41
2023-02-14T06:25:29.614Z,97436.59
2023-02-14T06:26:33.243Z,97438.50
2023-02-14T06:27:35.114Z,97440.09
2023-02-14T06:28:38.033Z,97437.72
2023-02-14T06:29:42.741Z,97432.63
2023-02-14T06:30:47.401Z,97424.06
2023-02-14T06:31:49.521Z,97429.47
2023-02-14T06:32:52.681Z,97421.38
2023-02-14T06:33:56.202Z,97430.59
2023-02-14T06:34:58.059Z,97432.97
2023-02-14T06:36:00.937Z,97436.00
2023-02-14T06:37:02.952Z,97429.81
2023-02-14T06:38:05.874Z,97429.81
2023-02-14T06:39:07.886Z,97433.28
2023-02-14T06:40:12.082Z,97425.19
2023-02-14T06:41:16.986Z,97431.69
2023-02-14T06:42:20.408Z,97431.69
2023-02-14T06:43:23.272Z,97433.28
2023-02-14T06:44:25.178Z,97434.38
2023-02-14T06:45:29.351Z,97433.59
2023-02-14T06:46:31.287Z,97440.13
2023-02-14T06:47:35.185Z,97432.81
2023-02-14T06:48:38.268Z,97442.81
2023-02-14T06:49:40.130Z,97440.44
2023-02-14T06:50:43.037Z,97435.03
2023-02-14T06:51:44.982Z,97443.44
2023-02-14T06:52:48.316Z,97434.56
2023-02-14T06:53:51.177Z,97441.09
2023-02-14T06:54:54.119Z,97443.44
2023-02-14T06:55:57.120Z,97440.44
2023-02-14T06:56:59.102Z,97443.13
2023-02-14T06:58:02.020Z,97444.25
2023-02-14T06:59:04.242Z,97445.03
2023-02-14T07:00:08.778Z,97444.25
2023-02-14T07:01:12.082Z,97443.44
2023-02-14T07:02:15.016Z,97441.56
2023-02-14T07:03:16.969Z,97435.69
2023-02-14T07:04:19.895Z,97436.78
2023-02-14T07:05:22.841Z,97442.19
2023-02-14T07:06:25.910Z,97444.88
2023-02-14T07:07:27.900Z,97442.19
2023-02-14T07:08:30.826Z,97442.19
2023-02-14T07:09:32.873Z,97437.91
2023-02-14T07:10:36.005Z,97443.31
2023-02-14T07:11:37.948Z,97441.41
2023-02-14T07:12:40.854Z,97432.53
2023-02-14T07:13:44.297Z,97440.59
2023-02-14T07:14:47.172Z,97434.75
2023-02-14T07:15:50.144Z,97441.72
2023-02-14T07:16:54.468Z,97434.75
2023-02-14T07:17:57.393Z,97436.97
2023-02-14T07:18:59.830Z,97438.56
2023-02-14T07:20:03.074Z,97428.88
2023-02-14T07:21:06.350Z,97434.28
2023-02-14T07:22:09.288Z,97424.59
2023-02-14T07:23:11.533Z,97430.00
2023-02-14T07:24:14.483Z,97433.78
2023-02-14T07:25:17.848Z,97429.53
2023-02-14T07:26:19.825Z,97437.28
2023-02-14T07:27:22.754Z,97434.91
2023-02-14T07:28:24.618Z,97439.84
2023-02-14T07:29:27.538Z,97435.22
2023-02-14T07:30:29.673Z,97439.06
2023-02-14T07:31:32.909Z,97433.66
2023-02-14T07:32:39.087Z,97440.94
2023-02-14T07:33:41.026Z,97434.75
2023-02-14T07:34:43.933Z,97428.56
2023-02-14T07:35:45.949Z,97433.19
2023-02-14T07:36:48.850Z,97432.41
2023-02-14T07:37:51.422Z,97435.09
2023-02-14T07:38:54.309Z,97430.81
2023-02-14T07:39:57.185Z,97426.19
2023-02-14T07:40:59.569Z,97422.72
2023-02-14T07:42:02.696Z,97414.94
2023-02-14T07:43:05.650Z,97427.63
2023-02-14T07:44:07.582Z,97424.16
2023-02-14T07:45:21.230Z,97425.72
2023-02-14T07:46:25.297Z,97428.09
2023-02-14T07:47:27.311Z,97428.09
2023-02-14T07:48:34.166Z,97421.63
2023-02-14T07:49:36.825Z,97425.41
2023-02-14T07:50:39.724Z,97423.50
2023-02-14T07:51:42.795Z,97419.69
2023-02-14T07:52:45.375Z,97423.19
2023-02-14T07:53:48.388Z,97425.88
2023-02-14T07:54:50.308Z,97422.41
2023-02-14T07:55:53.851Z,97423.19
2023-02-14T07:56:56.230Z,97413.19
2023-02-14T07:57:59.226Z,97416.66
2023-02-14T07:59:02.182Z,97417.78
2023-02-14T08:00:06.446Z,97417.78
2023-02-14T08:01:14.931Z,97411.28
2023-02-14T08:02:16.988Z,97415.88
2023-02-14T08:03:19.933Z,97413.53
2023-02-14T08:04:26.103Z,97408.13
2023-02-14T08:05:28.162Z,97413.53
2023-02-14T08:06:31.206Z,97405.44
2023-02-14T08:07:33.185Z,97403.53
2023-02-14T08:08:36.448Z,97413.19
2023-02-14T08:09:39.416Z,97404.78
2023-02-14T08:10:41.423Z,97405.88
2023-02-14T08:12:05.566Z,97407.00
2023-02-14T08:13:09.767Z,97405.09
2023-02-14T08:14:11.904Z,97404.78
2023-02-14T08:15:32.274Z,97404.00
2023-02-14T08:16:35.349Z,97399.38
2023-02-14T08:17:37.329Z,97405.25
2023-02-14T08:18:42.237Z,97407.94
2023-02-14T08:19:45.580Z,97404.47
2023-02-14T08:20:49.850Z,97405.25
2023-02-14T08:21:52.950Z,97402.56
2023-02-14T08:22:54.924Z,97404.13
2023-02-14T08:23:58.095Z,97400.66
2023-02-14T08:25:01.036Z,97392.09
2023-02-14T08:26:03.493Z,97392.88
2023-02-14T08:27:06.467Z,97400.16
2023-02-14T08:28:09.091Z,97395.56
2023-02-14T08:29:12.039Z,97402.88
2023-02-14T08:30:15.315Z,97397.47
2023-02-14T08:31:34.412Z,97394.00
2023-02-14T08:32:37.667Z,97392.88
2023-02-14T08:33:40.756Z,97402.09
2023-02-14T08:34:42.689Z,97392.88
2023-02-14T08:35:47.132Z,97398.25
2023-02-14T08:36:49.139Z,97399.06
2023-02-14T08:37:51.995Z,97403.66
2023-02-14T08:38:55.784Z,97396.69
2023-02-14T08:39:57.743Z,97400.16
2023-02-14T08:41:03.255Z,97399.38
2023-02-14T08:42:07.111Z,97403.66
2023-02-14T08:43:10.454Z,97402.09
2023-02-14T08:44:13.488Z,97399.38
2023-02-14T08:45:15.416Z,97405.88
2023-02-14T08:46:18.576Z,97405.88
2023-02-14T08:47:20.637Z,97405.09
2023-02-14T08:48:25.257Z,97405.88
2023-02-14T08:49:28.206Z,97405.88
2023-02-14T08:50:30.410Z,97408.56
2023-02-14T08:51:34.696Z,97405.56
2023-02-14T08:52:36.668Z,97406.34
2023-02-14T08:53:40.199Z,97409.06
2023-02-14T08:54:43.125Z,97402.09
2023-02-14T08:55:46.079Z,97402.88
2023-02-14T08:56:48.658Z,97402.09
2023-02-14T08:57:51.653Z,97411.75
2023-02-14T08:58:55.022Z,97404.78
2023-02-14T08:59:56.981Z,97412.88
2023-02-14T09:01:00.294Z,97409.06
2023-02-14T09:02:02.478Z,97414.44
2023-02-14T09:03:05.456Z,97416.03
2023-02-14T09:04:08.392Z,97415.25
2023-02-14T09:05:11.386Z,97409.06
2023-02-14T09:06:17.825Z,97414.44
2023-02-14T09:07:22.320Z,97413.34
2023-02-14T09:08:25.307Z,97416.03
2023-02-14T09:09:27.356Z,97414.91
2023-02-14T09:10:30.493Z,97414.91
2023-02-14T09:11:33.582Z,97413.81
2023-02-14T09:12:35.541Z,97413.81
2023-02-14T09:13:38.513Z,97416.53
2023-02-14T09:14:43.910Z,97419.22
2023-02-14T09:15:46.866Z,97419.22
2023-02-14T09:16:49.935Z,97415.69
2023-02-14T09:17:52.965Z,97416.81
2023-02-14T09:18:56.750Z,97435.41
2023-02-14T09:19:58.732Z,97424.91
2023-02-14T09:21:02.035Z,97420.31
2023-02-14T09:22:05.846Z,97416.03
2023-02-14T09:23:09.166Z,97416.03
2023-02-14T09:24:12.112Z,97419.84
2023-02-14T09:25:17.506Z,97423.66
2023-02-14T09:26:21.303Z,97422.06
2023-02-14T09:27:24.273Z,97422.06
2023-02-14T09:28:26.312Z,97425.56
2023-02-14T09:29:29.837Z,97422.88
2023-02-14T09:30:32.775Z,97418.25
2023-02-14T09:31:34.840Z,97424.44
2023-02-14T09:32:37.863Z,97419.06
2023-02-14T09:33:40.642Z,97414.44
2023-02-14T09:35:00.995Z,97420.66
2023-02-14T09:36:19.416Z,97415.25
2023-02-14T09:37:40.170Z,97417.13
2023-02-14T09:38:44.782Z,97416.03
2023-02-14T09:39:47.691Z,97415.25
2023-02-14T09:40:50.675Z,97416.03
2023-02-14T09:42:09.654Z,97418.75
2023-02-14T09:43:20.934Z,97409.53
2023-02-14T09:44:29.832Z,97415.25
2023-02-14T09:45:35.141Z,97412.56
2023-02-14T09:46:44.164Z,97414.44
2023-02-14T09:47:51.977Z,97417.13
2023-02-14T09:48:57.112Z,97409.88
2023-02-14T09:50:00.017Z,97413.34
2023-02-14T09:51:07.112Z,97406.81
2023-02-14T09:52:13.609Z,97408.44
2023-02-14T09:53:25.394Z,97408.09
2023-02-14T09:54:32.740Z,97396.97
2023-02-14T09:55:43.994Z,97399.69
2023-02-14T09:56:55.298Z,97408.25
2023-02-14T09:58:09.874Z,97406.34
2023-02-14T09:59:17.392Z,97401.72
2023-02-14T10:00:28.731Z,97408.72
2023-02-14T10:01:37.458Z,97408.72
2023-02-14T10:02:46.016Z,97405.69
2023-02-14T10:04:04.232Z,97407.59
2023-02-14T10:05:14.783Z,97406.03
2023-02-14T10:06:37.378Z,97410.28
2023-02-14T10:07:56.117Z,97411.06
2023-02-14T10:09:09.411Z,97404.91
2023-02-14T10:10:17.844Z,97410.28
2023-02-14T10:11:25.594Z,97403.31
2023-02-14T10:12:32.916Z,97398.72
2023-02-14T10:13:40.905Z,97406.03
2023-02-14T10:14:44.695Z,97400.28
2023-02-14T10:15:51.987Z,97407.28
2023-02-14T10:17:00.615Z,97397.28
2023-02-14T10:18:06.925Z,97403.78
2023-02-14T10:19:25.026Z,97403.47
2023-02-14T10:20:33.352Z,97402.66
2023-02-14T10:21:42.039Z,97399.19
2023-02-14T10:22:50.214Z,97405.38
2023-02-14T10:23:58.483Z,97401.09
2023-02-14T10:25:07.186Z,97401.09
2023-02-14T10:26:16.232Z,97397.59
2023-02-14T10:27:33.780Z,97391.41
2023-02-14T10:28:40.320Z,97395.72
2023-02-14T10:29:43.340Z,97401.88
2023-02-14T10:30:54.077Z,97405.38
2023-02-14T10:32:00.841Z,97403.47
2023-02-14T10:33:08.471Z,97394.25
2023-02-14T10:34:18.005Z,97395.84
2023-02-14T10:35:32.588Z,97396.63
2023-02-14T10:36:53.381Z,97392.81
2023-02-14T10:38:05.868Z,97389.00
2023-02-14T10:39:25.351Z,97388.69
2023-02-14T10:40:42.348Z,97391.06
2023-02-14T10:41:53.924Z,97383.75
2023-02-14T10:43:06.221Z,97389.94
2023-02-14T10:44:31.640Z,97388.03
2023-02-14T10:45:42.993Z,97388.84
2023-02-14T10:46:51.859Z,97380.75
2023-02-14T10:48:06.192Z,97380.75
2023-02-14T10:49:22.370Z,97380.75
2023-02-14T10:50:33.137Z,97369.97
2023-02-14T10:51:41.560Z,97375.34
2023-02-14T10:52:57.213Z,97374.22
2023-02-14T10:54:17.869Z,97364.56
2023-02-14T10:55:32.304Z,97362.31
2023-02-14T10:56:41.097Z,97362.78
2023-02-14T10:57:49.664Z,97363.91
2023-02-14T10:58:56.797Z,97362.78
2023-02-14T11:00:03.228Z,97358.19
2023-02-14T11:01:11.159Z,97348.19
2023-02-14T11:02:16.932Z,97353.25
2023-02-14T11:03:19.261Z,97354.06
2023-02-14T11:04:25.190Z,97351.00
2023-02-14T11:05:32.280Z,97353.72
2023-02-14T11:06:35.972Z,97352.63
2023-02-14T11:07:38.883Z,97358.00
2023-02-14T11:08:42.944Z,97353.41
2023-02-14T11:09:46.560Z,97352.63
2023-02-14T11:10:49.996Z,97350.22
2023-02-14T11:11:55.760Z,97351.81
2023-02-14T11:12:59.082Z,97347.22
2023-02-14T11:15:33.509Z,97353.41
2023-02-14T11:16:38.578Z,97352.25
2023-02-14T11:17:41.306Z,97349.56
2023-02-14T11:18:44.270Z,97344.16
2023-02-14T11:19:59.033Z,97344.16
2023-02-14T11:21:05.138Z,97334.97
2023-02-14T11:22:10.194Z,97332.75
2023-02-14T11:23:21.531Z,97332.41
2023-02-14T11:24:31.273Z,97330.53
2023-02-14T11:25:36.546Z,97327.81
2023-02-14T11:26:39.666Z,97332.09
2023-02-14T11:27:49.821Z,97321.28
2023-02-14T11:28:58.992Z,97324.00
2023-02-14T11:30:02.301Z,97321.28
2023-02-14T11:31:05.585Z,97316.69
2023-02-14T11:32:10.918Z,97315.56
2023-02-14T11:33:23.572Z,97317.50
2023-02-14T11:34:36.808Z,97319.06
2023-02-14T11:35:39.429Z,97316.84
2023-02-14T11:36:43.158Z,97317.94
2023-02-14T11:37:51.372Z,97316.84
2023-02-14T11:38:59.568Z,97313.00
2023-02-14T11:40:03.913Z,97309.19
2023-02-14T11:41:10.278Z,97317.31
2023-02-14T11:42:14.233Z,97305.72
2023-02-14T11:43:30.056Z,97316.16
2023-02-14T11:44:37.269Z,97308.06
2023-02-14T11:45:41.795Z,97306.97
2023-02-14T11:46:52.765Z,97305.84
2023-02-14T11:48:11.088Z,97303.59
2023-02-14T11:49:29.614Z,97300.25
2023-02-14T11:50:33.158Z,97294.84
2023-02-14T11:51:40.224Z,97298.00
2023-02-14T11:52:51.267Z,97297.22
2023-02-14T11:53:56.029Z,97291.50
2023-02-14T11:54:59.986Z,97299.59
2023-02-14T11:56:02.001Z,97296.56
2023-02-14T11:57:12.964Z,97292.75
2023-02-14T11:58:31.479Z,97295.09
2023-02-14T11:59:39.398Z,97286.69
2023-02-14T12:00:51.893Z,97289.06
2023-02-14T12:01:55.760Z,97287.47
2023-02-14T12:03:00.245Z,97284.78
2023-02-14T12:04:09.047Z,97282.06
2023-02-14T12:05:20.351Z,97284.78
2023-02-14T12:06:27.968Z,97287.94
2023-02-14T12:07:33.176Z,97272.88
2023-02-14T12:08:39.009Z,97284.13
2023-02-14T12:09:43.157Z,97290.00
2023-02-14T12:10:52.745Z,97281.09
2023-02-14T12:11:56.535Z,97286.16
2023-02-14T12:13:02.197Z,97280.81
2023-02-14T12:14:04.391Z,97280.50
2023-02-14T12:15:28.337Z,97275.09
2023-02-14T12:16:36.289Z,97275.09
2023-02-14T12:17:40.904Z,97275.09
2023-02-14T12:18:54.841Z,97276.25
2023-02-14T12:20:03.520Z,97273.53
2023-02-14T12:21:21.511Z,97272.25
2023-02-14T12:22:29.213Z,97270.22
2023-02-14T12:23:40.417Z,97275.63
2023-02-14T12:24:55.284Z,97269.78
2023-02-14T12:26:02.528Z,97268.66
2023-02-14T12:27:20.093Z,97263.25
2023-02-14T12:28:30.801Z,97264.84
2023-02-14T12:29:37.739Z,97264.84
2023-02-14T12:30:42.938Z,97258.66
2023-02-14T12:31:46.791Z,97255.63
2023-02-14T12:32:52.112Z,97261.81
2023-02-14T12:33:54.136Z,97256.06
2023-02-14T12:35:03.177Z,97256.06
2023-02-14T12:36:17.657Z,97259.22
2023-02-14T12:37:50.799Z,97257.34
2023-02-14T12:39:08.575Z,97254.28
2023-02-14T12:40:17.343Z,97245.88
2023-02-14T12:41:34.568Z,97253.19
2023-02-14T12:43:00.857Z,97252.84
2023-02-14T12:44:08.398Z,97244.41
2023-02-14T12:45:21.007Z,97245.53
2023-02-14T12:46:52.492Z,97246.31
2023-02-14T12:48:05.915Z,97245.53
2023-02-14T12:49:32.440Z,97242.84
2023-02-14T12:50:44.679Z,97242.63
2023-02-14T12:51:56.156Z,97235.00
2023-02-14T12:53:27.585Z,97241.63
2023-02-14T12:54:46.200Z,97240.97
2023-02-14T12:55:59.713Z,97239.03
2023-02-14T12:57:13.770Z,97242.56
2023-02-14T12:58:35.084Z,97240.63
2023-02-14T12:59:53.291Z,97232.53
2023-02-14T13:01:07.451Z,97232.66
2023-02-14T13:02:48.680Z,97234.25
2023-02-14T13:04:13.015Z,97225.34